Jacksonville, FL (32234)

6:27 PM EDT on August 31, 2016 (GMT -0400)
Lazy Dogs Ranch | | Change Station

Elev 117 ft 30.17 °N, 82.00 °W | Updated 26 seconds ago

Scattered Clouds
Scattered Clouds
81.4 °F
Feels Like 87 °F
N
1.0
Wind Variable Wind from SW
Gusts 5.0 mph

Today
High -- | Low -- °F
--% Chance of Precip.
Yesterday
High -- | Low -- °F
Precip. -- in
Pressure 29.87 in
Visibility 10.0 miles
Clouds Scattered Clouds 2400 ft
Heat Index 87 °F
Dew Point 74 °F
Humidity 78%
Rainfall 0.00 in
Snow Depth Not available.
7:04 AM 7:51 PM
Waning Crescent, 0% visible
METAR KVQQ 312150Z 00000KT 10SM SCT024 26/25 A2987
Pressure 29.87 in
Visibility 10.0 miles
Clouds Scattered Clouds 2400 ft
Heat Index 87 °F
Dew Point 74 °F
Humidity 78%
Rainfall 0.00 in
Snow Depth Not available.
7:04 AM 7:51 PM
Waning Crescent, 0% visible
METAR KVQQ 312150Z 00000KT 10SM SCT024 26/25 A2987

10-Day Weather Forecast

Almanac

Astronomy

Aug. 31, 2016 Rise Set
Actual Time
Civil Twilight
Nautical Twilight
Astronomical Twilight
Moon
Length of Visible Light
Length of Day
Tomorrow will be .
, % of the Moon is Illuminated

Today's Extremes

State Highs State Lows

Community

WunderPhotos

Upload Photos

1,936,200 photos uploaded!

WunderBlog® & News

Nearby

Air Quality

  Air Quality AQ Index Pollutant
Not available.

Snow Depth

Station Depth Elevation

Earthquake Activity

City Distance Mag. Time & Date
Minimum magnitude displayed is 2.5.

Coastal Water Temperatures

Place Temperature

Stations

Nearby Weather Stations

Station Location Temp. Windchill Dew Point Humidity Wind Precip. Elev Updated Type
                   

Watches & Warnings

There are currently no watches in effect.